sensor_id;sensor_type;location;lat;lon;timestamp;P1;durP1;ratioP1;P2;durP2;ratioP2
20593;SDS011;10455;48.732;10.266;2022-08-25T00:02:50;12.37;;;10.40;;
20593;SDS011;10455;48.732;10.266;2022-08-25T00:07:55;10.57;;;9.57;;
20593;SDS011;10455;48.732;10.266;2022-08-25T00:12:59;10.40;;;9.37;;
20593;SDS011;10455;48.732;10.266;2022-08-25T00:18:02;11.07;;;9.80;;
20593;SDS011;10455;48.732;10.266;2022-08-25T00:23:05;10.33;;;9.43;;
20593;SDS011;10455;48.732;10.266;2022-08-25T00:28:09;11.03;;;9.93;;
20593;SDS011;10455;48.732;10.266;2022-08-25T00:33:11;10.70;;;9.63;;
20593;SDS011;10455;48.732;10.266;2022-08-25T00:38:13;12.53;;;10.47;;
20593;SDS011;10455;48.732;10.266;2022-08-25T00:43:17;11.53;;;10.43;;
20593;SDS011;10455;48.732;10.266;2022-08-25T00:48:19;12.37;;;11.17;;
20593;SDS011;10455;48.732;10.266;2022-08-25T00:53:22;12.50;;;11.30;;
20593;SDS011;10455;48.732;10.266;2022-08-25T00:58:26;13.33;;;12.03;;
20593;SDS011;10455;48.732;10.266;2022-08-25T01:03:30;16.30;;;14.43;;
20593;SDS011;10455;48.732;10.266;2022-08-25T01:08:34;17.07;;;15.30;;
20593;SDS011;10455;48.732;10.266;2022-08-25T01:13:39;17.07;;;15.27;;
20593;SDS011;10455;48.732;10.266;2022-08-25T01:18:46;17.57;;;15.77;;
20593;SDS011;10455;48.732;10.266;2022-08-25T01:23:51;18.00;;;15.93;;
20593;SDS011;10455;48.732;10.266;2022-08-25T01:28:55;14.77;;;13.37;;
20593;SDS011;10455;48.732;10.266;2022-08-25T01:34:16;12.80;;;11.60;;
20593;SDS011;10455;48.732;10.266;2022-08-25T01:39:22;12.07;;;10.90;;
20593;SDS011;10455;48.732;10.266;2022-08-25T01:44:24;14.97;;;13.40;;
20593;SDS011;10455;48.732;10.266;2022-08-25T01:49:27;17.43;;;15.27;;
20593;SDS011;10455;48.732;10.266;2022-08-25T01:54:30;18.60;;;16.03;;
20593;SDS011;10455;48.732;10.266;2022-08-25T01:59:33;19.13;;;16.70;;
20593;SDS011;10455;48.732;10.266;2022-08-25T02:04:35;18.57;;;16.60;;
20593;SDS011;10455;48.732;10.266;2022-08-25T02:09:38;21.80;;;17.73;;
20593;SDS011;10455;48.732;10.266;2022-08-25T02:14:41;20.87;;;17.73;;
20593;SDS011;10455;48.732;10.266;2022-08-25T02:19:43;21.30;;;16.23;;
20593;SDS011;10455;48.732;10.266;2022-08-25T02:24:46;16.33;;;14.50;;
20593;SDS011;10455;48.732;10.266;2022-08-25T02:29:49;15.50;;;14.00;;
20593;SDS011;10455;48.732;10.266;2022-08-25T02:34:51;17.17;;;15.40;;
20593;SDS011;10455;48.732;10.266;2022-08-25T02:39:54;19.20;;;17.17;;
20593;SDS011;10455;48.732;10.266;2022-08-25T02:44:56;15.13;;;13.30;;
20593;SDS011;10455;48.732;10.266;2022-08-25T02:49:58;13.90;;;12.50;;
20593;SDS011;10455;48.732;10.266;2022-08-25T02:55:02;17.30;;;14.20;;
20593;SDS011;10455;48.732;10.266;2022-08-25T03:00:06;19.67;;;17.37;;
20593;SDS011;10455;48.732;10.266;2022-08-25T03:05:10;16.70;;;14.73;;
20593;SDS011;10455;48.732;10.266;2022-08-25T03:10:15;18.00;;;16.17;;
20593;SDS011;10455;48.732;10.266;2022-08-25T03:15:18;21.63;;;19.23;;
20593;SDS011;10455;48.732;10.266;2022-08-25T03:20:21;22.70;;;19.43;;
20593;SDS011;10455;48.732;10.266;2022-08-25T03:25:25;17.20;;;15.40;;
20593;SDS011;10455;48.732;10.266;2022-08-25T03:30:45;18.70;;;15.80;;
20593;SDS011;10455;48.732;10.266;2022-08-25T03:35:47;16.50;;;14.77;;
20593;SDS011;10455;48.732;10.266;2022-08-25T03:40:51;18.93;;;16.17;;
20593;SDS011;10455;48.732;10.266;2022-08-25T03:45:53;18.27;;;16.40;;
20593;SDS011;10455;48.732;10.266;2022-08-25T03:50:56;18.23;;;15.43;;
20593;SDS011;10455;48.732;10.266;2022-08-25T03:55:59;19.10;;;16.90;;
20593;SDS011;10455;48.732;10.266;2022-08-25T04:01:02;22.13;;;19.57;;
20593;SDS011;10455;48.732;10.266;2022-08-25T04:06:04;27.40;;;20.43;;
20593;SDS011;10455;48.732;10.266;2022-08-25T04:11:10;22.03;;;19.43;;
20593;SDS011;10455;48.732;10.266;2022-08-25T04:16:14;23.50;;;18.93;;
20593;SDS011;10455;48.732;10.266;2022-08-25T04:21:18;25.50;;;21.90;;
20593;SDS011;10455;48.732;10.266;2022-08-25T04:26:23;23.70;;;20.07;;
20593;SDS011;10455;48.732;10.266;2022-08-25T04:31:26;32.63;;;24.30;;
20593;SDS011;10455;48.732;10.266;2022-08-25T04:36:29;40.47;;;28.37;;
20593;SDS011;10455;48.732;10.266;2022-08-25T04:41:33;37.10;;;28.10;;
20593;SDS011;10455;48.732;10.266;2022-08-25T04:46:36;23.10;;;20.60;;
20593;SDS011;10455;48.732;10.266;2022-08-25T04:51:39;24.30;;;19.63;;
20593;SDS011;10455;48.732;10.266;2022-08-25T04:56:43;27.37;;;21.70;;
20593;SDS011;10455;48.732;10.266;2022-08-25T05:01:46;27.47;;;21.97;;
20593;SDS011;10455;48.732;10.266;2022-08-25T05:06:48;23.33;;;20.83;;
20593;SDS011;10455;48.732;10.266;2022-08-25T05:11:51;26.50;;;22.87;;
20593;SDS011;10455;48.732;10.266;2022-08-25T05:16:54;14.38;;;13.00;;
20593;SDS011;10455;48.732;10.266;2022-08-25T05:21:57;14.68;;;13.15;;
20593;SDS011;10455;48.732;10.266;2022-08-25T05:27:00;11.60;;;10.50;;
20593;SDS011;10455;48.732;10.266;2022-08-25T05:32:03;10.48;;;9.48;;
20593;SDS011;10455;48.732;10.266;2022-08-25T05:37:05;8.90;;;8.02;;
20593;SDS011;10455;48.732;10.266;2022-08-25T05:42:08;9.32;;;8.52;;
20593;SDS011;10455;48.732;10.266;2022-08-25T05:47:10;10.57;;;8.38;;
20593;SDS011;10455;48.732;10.266;2022-08-25T05:52:12;11.93;;;9.00;;
20593;SDS011;10455;48.732;10.266;2022-08-25T05:57:16;22.52;;;10.10;;
20593;SDS011;10455;48.732;10.266;2022-08-25T06:02:18;13.90;;;9.77;;
20593;SDS011;10455;48.732;10.266;2022-08-25T06:07:38;10.52;;;8.90;;
20593;SDS011;10455;48.732;10.266;2022-08-25T06:12:42;8.05;;;7.38;;
20593;SDS011;10455;48.732;10.266;2022-08-25T06:17:45;9.48;;;8.68;;
20593;SDS011;10455;48.732;10.266;2022-08-25T06:22:49;10.00;;;9.00;;
20593;SDS011;10455;48.732;10.266;2022-08-25T06:27:53;8.80;;;7.95;;
20593;SDS011;10455;48.732;10.266;2022-08-25T06:32:56;8.75;;;8.05;;
20593;SDS011;10455;48.732;10.266;2022-08-25T06:37:58;8.13;;;7.47;;
20593;SDS011;10455;48.732;10.266;2022-08-25T06:43:01;10.30;;;7.13;;
20593;SDS011;10455;48.732;10.266;2022-08-25T06:48:06;7.30;;;6.80;;
20593;SDS011;10455;48.732;10.266;2022-08-25T06:53:09;8.27;;;7.53;;
20593;SDS011;10455;48.732;10.266;2022-08-25T06:58:12;8.82;;;7.95;;
20593;SDS011;10455;48.732;10.266;2022-08-25T07:03:14;8.50;;;7.70;;
20593;SDS011;10455;48.732;10.266;2022-08-25T07:08:17;7.45;;;6.85;;
20593;SDS011;10455;48.732;10.266;2022-08-25T07:13:20;7.15;;;6.50;;
20593;SDS011;10455;48.732;10.266;2022-08-25T07:18:23;7.43;;;6.82;;
20593;SDS011;10455;48.732;10.266;2022-08-25T07:23:26;7.35;;;6.75;;
20593;SDS011;10455;48.732;10.266;2022-08-25T07:28:29;7.40;;;6.78;;
20593;SDS011;10455;48.732;10.266;2022-08-25T07:33:32;8.15;;;7.40;;
20593;SDS011;10455;48.732;10.266;2022-08-25T07:38:34;8.23;;;7.35;;
20593;SDS011;10455;48.732;10.266;2022-08-25T07:43:38;8.57;;;6.93;;
20593;SDS011;10455;48.732;10.266;2022-08-25T07:48:40;7.40;;;6.70;;
20593;SDS011;10455;48.732;10.266;2022-08-25T07:53:42;8.40;;;7.15;;
20593;SDS011;10455;48.732;10.266;2022-08-25T07:58:46;8.85;;;7.35;;
20593;SDS011;10455;48.732;10.266;2022-08-25T08:03:49;7.22;;;6.63;;
20593;SDS011;10455;48.732;10.266;2022-08-25T08:08:52;9.02;;;8.15;;
20593;SDS011;10455;48.732;10.266;2022-08-25T08:13:56;9.00;;;8.25;;
20593;SDS011;10455;48.732;10.266;2022-08-25T08:18:58;8.50;;;7.53;;
20593;SDS011;10455;48.732;10.266;2022-08-25T08:24:02;8.88;;;8.13;;
20593;SDS011;10455;48.732;10.266;2022-08-25T08:29:06;9.23;;;8.38;;
20593;SDS011;10455;48.732;10.266;2022-08-25T08:34:08;8.65;;;7.72;;
20593;SDS011;10455;48.732;10.266;2022-08-25T08:39:11;9.63;;;8.73;;
20593;SDS011;10455;48.732;10.266;2022-08-25T08:44:17;9.75;;;8.75;;
20593;SDS011;10455;48.732;10.266;2022-08-25T08:49:25;10.00;;;8.48;;
20593;SDS011;10455;48.732;10.266;2022-08-25T08:54:35;8.77;;;8.10;;
20593;SDS011;10455;48.732;10.266;2022-08-25T08:59:43;9.38;;;8.48;;
20593;SDS011;10455;48.732;10.266;2022-08-25T09:04:50;9.07;;;8.30;;
20593;SDS011;10455;48.732;10.266;2022-08-25T09:09:55;7.38;;;6.78;;
20593;SDS011;10455;48.732;10.266;2022-08-25T09:15:03;8.80;;;8.00;;
20593;SDS011;10455;48.732;10.266;2022-08-25T09:25:38;8.20;;;7.55;;
20593;SDS011;10455;48.732;10.266;2022-08-25T09:30:48;8.90;;;8.10;;
20593;SDS011;10455;48.732;10.266;2022-08-25T09:35:55;8.80;;;8.00;;
20593;SDS011;10455;48.732;10.266;2022-08-25T09:40:59;7.60;;;6.95;;
20593;SDS011;10455;48.732;10.266;2022-08-25T09:46:08;8.77;;;7.97;;
20593;SDS011;10455;48.732;10.266;2022-08-25T09:51:17;9.77;;;7.45;;
20593;SDS011;10455;48.732;10.266;2022-08-25T09:56:21;7.90;;;7.05;;
20593;SDS011;10455;48.732;10.266;2022-08-25T10:01:27;8.95;;;8.25;;
20593;SDS011;10455;48.732;10.266;2022-08-25T10:06:30;8.48;;;7.82;;
20593;SDS011;10455;48.732;10.266;2022-08-25T10:11:38;9.13;;;8.20;;
20593;SDS011;10455;48.732;10.266;2022-08-25T10:16:44;8.32;;;7.45;;
20593;SDS011;10455;48.732;10.266;2022-08-25T10:22:00;8.18;;;7.45;;
20593;SDS011;10455;48.732;10.266;2022-08-25T10:27:07;7.90;;;7.10;;
20593;SDS011;10455;48.732;10.266;2022-08-25T10:32:20;7.68;;;7.07;;
20593;SDS011;10455;48.732;10.266;2022-08-25T10:37:28;7.55;;;6.95;;
20593;SDS011;10455;48.732;10.266;2022-08-25T10:42:42;7.93;;;7.10;;
20593;SDS011;10455;48.732;10.266;2022-08-25T10:48:08;7.47;;;6.78;;
20593;SDS011;10455;48.732;10.266;2022-08-25T10:53:39;6.65;;;6.15;;
20593;SDS011;10455;48.732;10.266;2022-08-25T10:58:57;6.43;;;5.85;;
20593;SDS011;10455;48.732;10.266;2022-08-25T11:04:20;6.80;;;6.25;;
20593;SDS011;10455;48.732;10.266;2022-08-25T11:09:28;5.95;;;5.45;;
20593;SDS011;10455;48.732;10.266;2022-08-25T11:14:34;6.22;;;5.72;;
20593;SDS011;10455;48.732;10.266;2022-08-25T11:19:42;6.20;;;5.70;;
20593;SDS011;10455;48.732;10.266;2022-08-25T11:24:51;5.65;;;5.25;;
20593;SDS011;10455;48.732;10.266;2022-08-25T11:30:03;5.60;;;5.07;;
20593;SDS011;10455;48.732;10.266;2022-08-25T11:35:10;5.80;;;5.38;;
20593;SDS011;10455;48.732;10.266;2022-08-25T11:40:18;6.35;;;5.85;;
20593;SDS011;10455;48.732;10.266;2022-08-25T11:51:28;5.90;;;5.40;;
20593;SDS011;10455;48.732;10.266;2022-08-25T11:56:35;7.68;;;5.28;;
20593;SDS011;10455;48.732;10.266;2022-08-25T12:07:21;5.22;;;4.80;;
20593;SDS011;10455;48.732;10.266;2022-08-25T12:12:27;5.93;;;5.40;;
20593;SDS011;10455;48.732;10.266;2022-08-25T12:17:36;6.85;;;6.22;;
20593;SDS011;10455;48.732;10.266;2022-08-25T12:28:02;6.47;;;5.97;;
20593;SDS011;10455;48.732;10.266;2022-08-25T12:33:12;6.47;;;5.88;;
20593;SDS011;10455;48.732;10.266;2022-08-25T12:38:29;6.68;;;5.55;;
20593;SDS011;10455;48.732;10.266;2022-08-25T12:43:33;6.50;;;5.95;;
20593;SDS011;10455;48.732;10.266;2022-08-25T12:54:10;6.28;;;5.78;;
20593;SDS011;10455;48.732;10.266;2022-08-25T12:59:17;7.93;;;6.20;;
20593;SDS011;10455;48.732;10.266;2022-08-25T13:04:29;6.63;;;6.03;;
20593;SDS011;10455;48.732;10.266;2022-08-25T13:15:34;6.50;;;5.80;;
20593;SDS011;10455;48.732;10.266;2022-08-25T13:20:38;6.00;;;5.35;;
20593;SDS011;10455;48.732;10.266;2022-08-25T13:25:46;6.13;;;5.63;;
20593;SDS011;10455;48.732;10.266;2022-08-25T13:31:01;6.45;;;5.28;;
20593;SDS011;10455;48.732;10.266;2022-08-25T13:36:06;6.07;;;5.57;;
20593;SDS011;10455;48.732;10.266;2022-08-25T13:41:36;7.10;;;6.50;;
20593;SDS011;10455;48.732;10.266;2022-08-25T13:46:44;6.32;;;5.82;;
20593;SDS011;10455;48.732;10.266;2022-08-25T13:51:49;6.90;;;5.90;;
20593;SDS011;10455;48.732;10.266;2022-08-25T13:56:55;6.97;;;5.95;;
20593;SDS011;10455;48.732;10.266;2022-08-25T14:02:07;5.63;;;4.90;;
20593;SDS011;10455;48.732;10.266;2022-08-25T14:07:15;5.13;;;4.63;;
20593;SDS011;10455;48.732;10.266;2022-08-25T14:12:29;5.47;;;4.93;;
20593;SDS011;10455;48.732;10.266;2022-08-25T14:17:35;6.05;;;5.45;;
20593;SDS011;10455;48.732;10.266;2022-08-25T14:22:40;6.15;;;4.80;;
20593;SDS011;10455;48.732;10.266;2022-08-25T14:27:44;5.18;;;4.70;;
20593;SDS011;10455;48.732;10.266;2022-08-25T14:32:55;4.63;;;4.32;;
20593;SDS011;10455;48.732;10.266;2022-08-25T14:37:58;5.20;;;4.70;;
20593;SDS011;10455;48.732;10.266;2022-08-25T14:43:05;5.47;;;5.03;;
20593;SDS011;10455;48.732;10.266;2022-08-25T14:48:08;6.25;;;5.00;;
20593;SDS011;10455;48.732;10.266;2022-08-25T14:53:14;7.55;;;5.13;;
20593;SDS011;10455;48.732;10.266;2022-08-25T14:58:17;5.07;;;4.65;;
20593;SDS011;10455;48.732;10.266;2022-08-25T15:03:30;5.50;;;5.00;;
20593;SDS011;10455;48.732;10.266;2022-08-25T15:08:34;6.88;;;5.18;;
20593;SDS011;10455;48.732;10.266;2022-08-25T15:13:55;6.10;;;5.15;;
20593;SDS011;10455;48.732;10.266;2022-08-25T15:19:00;5.75;;;5.25;;
20593;SDS011;10455;48.732;10.266;2022-08-25T15:24:06;5.78;;;4.45;;
20593;SDS011;10455;48.732;10.266;2022-08-25T15:29:11;6.15;;;5.03;;
20593;SDS011;10455;48.732;10.266;2022-08-25T15:34:13;5.32;;;4.82;;
20593;SDS011;10455;48.732;10.266;2022-08-25T15:39:16;6.10;;;5.10;;
20593;SDS011;10455;48.732;10.266;2022-08-25T15:44:20;5.70;;;5.20;;
20593;SDS011;10455;48.732;10.266;2022-08-25T15:49:22;6.22;;;5.63;;
20593;SDS011;10455;48.732;10.266;2022-08-25T15:54:25;5.70;;;5.22;;
20593;SDS011;10455;48.732;10.266;2022-08-25T15:59:29;6.25;;;5.65;;
20593;SDS011;10455;48.732;10.266;2022-08-25T16:04:31;6.43;;;5.82;;
20593;SDS011;10455;48.732;10.266;2022-08-25T16:09:34;6.82;;;5.93;;
20593;SDS011;10455;48.732;10.266;2022-08-25T16:14:37;7.20;;;6.47;;
20593;SDS011;10455;48.732;10.266;2022-08-25T16:19:40;9.65;;;6.57;;
20593;SDS011;10455;48.732;10.266;2022-08-25T16:24:42;7.88;;;6.97;;
20593;SDS011;10455;48.732;10.266;2022-08-25T16:29:46;7.18;;;6.47;;
20593;SDS011;10455;48.732;10.266;2022-08-25T16:34:48;7.10;;;6.40;;
20593;SDS011;10455;48.732;10.266;2022-08-25T16:39:51;8.40;;;6.43;;
20593;SDS011;10455;48.732;10.266;2022-08-25T16:44:54;7.45;;;6.70;;
20593;SDS011;10455;48.732;10.266;2022-08-25T16:49:57;8.38;;;7.18;;
20593;SDS011;10455;48.732;10.266;2022-08-25T16:55:01;8.05;;;6.38;;
20593;SDS011;10455;48.732;10.266;2022-08-25T17:00:18;8.30;;;7.15;;
20593;SDS011;10455;48.732;10.266;2022-08-25T17:05:22;7.57;;;6.88;;
20593;SDS011;10455;48.732;10.266;2022-08-25T17:10:24;8.93;;;7.28;;
20593;SDS011;10455;48.732;10.266;2022-08-25T17:15:29;7.25;;;6.57;;
20593;SDS011;10455;48.732;10.266;2022-08-25T17:20:31;8.40;;;6.97;;
20593;SDS011;10455;48.732;10.266;2022-08-25T17:25:33;9.57;;;7.28;;
20593;SDS011;10455;48.732;10.266;2022-08-25T17:30:37;8.18;;;6.90;;
20593;SDS011;10455;48.732;10.266;2022-08-25T17:35:41;10.50;;;7.05;;
20593;SDS011;10455;48.732;10.266;2022-08-25T17:40:45;10.05;;;7.18;;
20593;SDS011;10455;48.732;10.266;2022-08-25T17:45:49;12.60;;;7.75;;
20593;SDS011;10455;48.732;10.266;2022-08-25T17:50:52;10.50;;;7.90;;
20593;SDS011;10455;48.732;10.266;2022-08-25T17:55:55;11.45;;;7.40;;
20593;SDS011;10455;48.732;10.266;2022-08-25T18:01:00;11.40;;;7.85;;
20593;SDS011;10455;48.732;10.266;2022-08-25T18:06:03;12.48;;;7.57;;
20593;SDS011;10455;48.732;10.266;2022-08-25T18:11:06;11.57;;;7.93;;
20593;SDS011;10455;48.732;10.266;2022-08-25T18:16:11;15.05;;;8.40;;
20593;SDS011;10455;48.732;10.266;2022-08-25T18:21:14;11.50;;;7.75;;
20593;SDS011;10455;48.732;10.266;2022-08-25T18:26:17;10.35;;;8.93;;
20593;SDS011;10455;48.732;10.266;2022-08-25T18:31:21;14.82;;;8.50;;
20593;SDS011;10455;48.732;10.266;2022-08-25T18:36:24;13.32;;;8.15;;
20593;SDS011;10455;48.732;10.266;2022-08-25T18:41:26;11.52;;;8.30;;
20593;SDS011;10455;48.732;10.266;2022-08-25T18:46:34;12.15;;;8.85;;
20593;SDS011;10455;48.732;10.266;2022-08-25T18:51:37;13.88;;;9.18;;
20593;SDS011;10455;48.732;10.266;2022-08-25T18:56:39;9.80;;;8.48;;
20593;SDS011;10455;48.732;10.266;2022-08-25T19:01:42;11.80;;;9.98;;
20593;SDS011;10455;48.732;10.266;2022-08-25T19:06:44;14.18;;;9.65;;
20593;SDS011;10455;48.732;10.266;2022-08-25T19:11:47;12.75;;;9.93;;
20593;SDS011;10455;48.732;10.266;2022-08-25T19:16:52;11.93;;;9.20;;
20593;SDS011;10455;48.732;10.266;2022-08-25T19:21:56;15.43;;;10.18;;
20593;SDS011;10455;48.732;10.266;2022-08-25T19:26:59;12.40;;;10.07;;
20593;SDS011;10455;48.732;10.266;2022-08-25T19:32:03;13.60;;;11.02;;
20593;SDS011;10455;48.732;10.266;2022-08-25T19:37:06;13.27;;;10.38;;
20593;SDS011;10455;48.732;10.266;2022-08-25T19:42:09;18.83;;;11.50;;
20593;SDS011;10455;48.732;10.266;2022-08-25T19:47:13;14.60;;;11.68;;
20593;SDS011;10455;48.732;10.266;2022-08-25T19:52:15;14.30;;;11.45;;
20593;SDS011;10455;48.732;10.266;2022-08-25T19:57:23;12.23;;;11.00;;
20593;SDS011;10455;48.732;10.266;2022-08-25T20:02:27;14.82;;;11.65;;
20593;SDS011;10455;48.732;10.266;2022-08-25T20:07:29;13.48;;;11.90;;
20593;SDS011;10455;48.732;10.266;2022-08-25T20:12:32;16.17;;;12.85;;
20593;SDS011;10455;48.732;10.266;2022-08-25T20:17:36;17.17;;;11.30;;
20593;SDS011;10455;48.732;10.266;2022-08-25T20:22:38;14.73;;;12.45;;
20593;SDS011;10455;48.732;10.266;2022-08-25T20:27:41;14.00;;;12.38;;
20593;SDS011;10455;48.732;10.266;2022-08-25T20:32:47;18.08;;;12.52;;
20593;SDS011;10455;48.732;10.266;2022-08-25T20:37:49;17.15;;;13.80;;
20593;SDS011;10455;48.732;10.266;2022-08-25T20:42:51;15.60;;;12.63;;
20593;SDS011;10455;48.732;10.266;2022-08-25T20:47:56;16.65;;;13.23;;
20593;SDS011;10455;48.732;10.266;2022-08-25T20:52:58;15.40;;;13.57;;
20593;SDS011;10455;48.732;10.266;2022-08-25T20:58:00;15.32;;;13.73;;
20593;SDS011;10455;48.732;10.266;2022-08-25T21:03:04;16.10;;;14.50;;
20593;SDS011;10455;48.732;10.266;2022-08-25T21:08:06;16.25;;;14.55;;
20593;SDS011;10455;48.732;10.266;2022-08-25T21:13:09;20.30;;;15.05;;
20593;SDS011;10455;48.732;10.266;2022-08-25T21:18:13;15.57;;;14.07;;
20593;SDS011;10455;48.732;10.266;2022-08-25T21:23:15;16.00;;;14.25;;
20593;SDS011;10455;48.732;10.266;2022-08-25T21:28:17;16.67;;;15.02;;
20593;SDS011;10455;48.732;10.266;2022-08-25T21:33:20;16.73;;;14.23;;
20593;SDS011;10455;48.732;10.266;2022-08-25T21:38:23;18.50;;;15.30;;
20593;SDS011;10455;48.732;10.266;2022-08-25T21:43:27;18.38;;;15.80;;
20593;SDS011;10455;48.732;10.266;2022-08-25T21:48:31;17.83;;;16.05;;
20593;SDS011;10455;48.732;10.266;2022-08-25T21:53:33;18.08;;;16.17;;
20593;SDS011;10455;48.732;10.266;2022-08-25T21:58:36;19.23;;;16.33;;
20593;SDS011;10455;48.732;10.266;2022-08-25T22:03:40;17.23;;;14.75;;
20593;SDS011;10455;48.732;10.266;2022-08-25T22:08:42;17.55;;;15.10;;
20593;SDS011;10455;48.732;10.266;2022-08-25T22:13:45;18.45;;;14.80;;
20593;SDS011;10455;48.732;10.266;2022-08-25T22:18:49;18.77;;;14.52;;
20593;SDS011;10455;48.732;10.266;2022-08-25T22:23:52;16.25;;;14.63;;
20593;SDS011;10455;48.732;10.266;2022-08-25T22:28:55;16.25;;;14.75;;
20593;SDS011;10455;48.732;10.266;2022-08-25T22:33:59;18.38;;;16.00;;
20593;SDS011;10455;48.732;10.266;2022-08-25T22:39:02;19.50;;;16.42;;
20593;SDS011;10455;48.732;10.266;2022-08-25T22:44:05;22.13;;;16.25;;
20593;SDS011;10455;48.732;10.266;2022-08-25T22:49:08;20.70;;;16.63;;
20593;SDS011;10455;48.732;10.266;2022-08-25T22:54:10;18.92;;;17.02;;
20593;SDS011;10455;48.732;10.266;2022-08-25T22:59:14;19.40;;;17.38;;
20593;SDS011;10455;48.732;10.266;2022-08-25T23:04:17;18.95;;;17.00;;
20593;SDS011;10455;48.732;10.266;2022-08-25T23:09:20;23.63;;;18.88;;
20593;SDS011;10455;48.732;10.266;2022-08-25T23:14:22;20.52;;;18.35;;
20593;SDS011;10455;48.732;10.266;2022-08-25T23:19:25;18.00;;;16.15;;
20593;SDS011;10455;48.732;10.266;2022-08-25T23:24:28;19.38;;;17.45;;
20593;SDS011;10455;48.732;10.266;2022-08-25T23:29:30;19.90;;;17.73;;
20593;SDS011;10455;48.732;10.266;2022-08-25T23:34:40;21.95;;;19.38;;
20593;SDS011;10455;48.732;10.266;2022-08-25T23:39:43;21.90;;;18.55;;
20593;SDS011;10455;48.732;10.266;2022-08-25T23:44:47;21.17;;;18.92;;
20593;SDS011;10455;48.732;10.266;2022-08-25T23:49:51;24.50;;;19.02;;
20593;SDS011;10455;48.732;10.266;2022-08-25T23:54:54;21.52;;;19.05;;
20593;SDS011;10455;48.732;10.266;2022-08-25T23:59:57;20.95;;;18.92;;
